Time;durP1;ratioP1;P1;durP2;ratioP2;P2;SDS_P1;SDS_P2;PMS_P1;PMS_P2;Temp;Humidity;BMP_temperature;BMP_pressure;BME280_temperature;BME280_humidity;BME280_pressure;Samples;Min_cycle;Max_cycle;Signal;HPM_P1;HPM_P2
2022/04/09 00:02:22;;;;;;;0.20;0.20;;;;;;;6.59;94.66;98926.03;5012207;28;20518;-66
2022/04/09 00:04:47;;;;;;;0.10;0.10;;;;;;;6.55;94.90;98917.97;5007739;28;20388;-66
2022/04/09 00:07:14;;;;;;;0.10;0.10;;;;;;;6.52;95.14;98926.75;5024899;28;20037;-66
2022/04/09 00:09:39;;;;;;;0.13;0.13;;;;;;;6.50;96.52;98921.00;5023277;28;20024;-66
2022/04/09 00:12:05;;;;;;;0.10;0.10;;;;;;;6.68;95.52;98934.53;4991422;28;20492;-67
2022/04/09 00:14:31;;;;;;;0.10;0.10;;;;;;;6.64;96.02;98933.72;5023910;28;20481;-64
2022/04/09 00:16:56;;;;;;;0.10;0.10;;;;;;;6.92;92.82;98940.03;5026840;28;20093;-67
2022/04/09 00:19:22;;;;;;;0.10;0.10;;;;;;;6.70;94.58;98940.25;5017178;28;20036;-65
2022/04/09 00:21:47;;;;;;;0.10;0.10;;;;;;;6.69;93.67;98934.16;5007501;28;20148;-65
2022/04/09 00:24:13;;;;;;;0.10;0.10;;;;;;;6.85;93.69;98939.22;5024978;28;20048;-67
2022/04/09 00:26:42;;;;;;;0.10;0.10;;;;;;;6.47;95.05;98940.44;5030207;28;20025;-65
2022/04/09 00:29:07;;;;;;;0.10;0.10;;;;;;;6.77;93.99;98949.09;5030212;28;20511;-65
2022/04/09 00:31:33;;;;;;;0.20;0.20;;;;;;;6.80;93.37;98945.69;5008908;28;20026;-66
2022/04/09 00:33:59;;;;;;;0.20;0.20;;;;;;;6.68;93.63;98943.28;5010423;28;20518;-64
2022/04/09 00:36:25;;;;;;;0.13;0.13;;;;;;;6.66;94.49;98939.47;5028324;28;20163;-66
2022/04/09 00:38:51;;;;;;;0.13;0.13;;;;;;;6.59;94.28;98950.09;5029859;28;20112;-68
2022/04/09 00:41:17;;;;;;;0.10;0.10;;;;;;;6.66;93.12;98956.25;5029980;28;20048;-66
2022/04/09 00:43:43;;;;;;;0.10;0.10;;;;;;;6.58;93.75;98956.59;5029087;28;20041;-66
2022/04/09 00:46:11;;;;;;;0.15;0.15;;;;;;;6.51;94.44;98962.63;5011487;28;20044;-65
2022/04/09 00:48:37;;;;;;;0.20;0.20;;;;;;;6.25;94.99;98966.22;5011589;28;20032;-65
2022/04/09 00:51:03;;;;;;;0.10;0.10;;;;;;;6.33;95.39;98975.84;5026277;28;20056;-66
2022/04/09 00:53:35;;;;;;;0.15;0.15;;;;;;;6.34;94.56;98981.97;5012223;28;20447;-66
2022/04/09 00:56:20;;;;;;;0.55;0.55;;;;;;;6.31;95.50;98977.34;5017801;28;20044;-65
2022/04/09 00:58:50;;;;;;;0.10;0.10;;;;;;;6.28;94.46;98992.22;5031846;22;20045;-57
2022/04/09 01:01:17;;;;;;;0.20;0.20;;;;;;;6.35;94.96;98986.94;5026499;28;20108;-62
2022/04/09 01:03:44;;;;;;;0.10;0.10;;;;;;;6.52;93.15;98995.50;5014333;28;20057;-59
2022/04/09 01:06:11;;;;;;;0.10;0.10;;;;;;;6.54;91.97;98998.56;4992771;28;20030;-56
2022/04/09 01:08:37;;;;;;;0.20;0.20;;;;;;;6.46;93.13;98996.97;5027856;28;20038;-59
2022/04/09 01:11:02;;;;;;;0.10;0.10;;;;;;;6.47;92.86;99006.50;5019704;28;20026;-55
2022/04/09 01:13:29;;;;;;;0.17;0.17;;;;;;;6.54;91.80;99004.69;4993523;28;20488;-55
2022/04/09 01:15:54;;;;;;;0.20;0.20;;;;;;;6.56;91.06;99007.78;5026183;28;20037;-58
2022/04/09 01:18:21;;;;;;;0.10;0.10;;;;;;;6.31;91.92;99022.78;5011969;28;20080;-60
2022/04/09 01:21:03;;;;;;;0.20;0.20;;;;;;;6.34;92.42;99022.06;4991630;28;20038;-59
2022/04/09 01:23:30;;;;;;;0.10;0.10;;;;;;;6.12;93.39;99021.06;4992124;28;20564;-59
2022/04/09 01:25:57;;;;;;;0.10;0.10;;;;;;;6.09;93.10;99032.47;4990472;28;20125;-59
2022/04/09 01:28:25;;;;;;;0.10;0.10;;;;;;;6.09;93.59;99029.03;4989996;28;20373;-60
2022/04/09 01:30:50;;;;;;;0.10;0.10;;;;;;;6.13;94.33;99029.84;4992665;28;20036;-59
2022/04/09 01:33:21;;;;;;;0.10;0.10;;;;;;;6.03;94.29;99036.59;5007853;28;20650;-60
2022/04/09 01:35:48;;;;;;;0.20;0.20;;;;;;;6.00;94.85;99036.56;4994796;28;20033;-59
2022/04/09 01:38:14;;;;;;;0.10;0.10;;;;;;;6.07;94.71;99040.09;4998657;28;20035;-58
2022/04/09 01:40:40;;;;;;;0.10;0.10;;;;;;;6.35;92.26;99040.41;4999295;28;20124;-55
2022/04/09 01:43:06;;;;;;;0.30;0.30;;;;;;;6.26;92.71;99044.50;4997788;28;20049;-62
2022/04/09 01:45:33;;;;;;;0.10;0.10;;;;;;;6.02;94.35;99047.66;5008452;28;20065;-60
2022/04/09 01:48:02;;;;;;;0.10;0.10;;;;;;;6.02;95.50;99059.09;5001083;28;20051;-60
2022/04/09 01:50:32;;;;;;;0.20;0.20;;;;;;;6.14;93.68;99066.88;4990596;28;20113;-60
2022/04/09 01:52:58;;;;;;;0.10;0.10;;;;;;;6.26;93.00;99060.53;4990010;28;20032;-60
2022/04/09 01:55:24;;;;;;;0.20;0.20;;;;;;;6.30;94.01;99072.81;4991451;28;20120;-60
2022/04/09 01:57:50;;;;;;;0.10;0.10;;;;;;;6.19;94.59;99068.47;5006198;28;20037;-60
2022/04/09 02:00:18;;;;;;;0.10;0.10;;;;;;;6.04;96.44;99066.78;4987602;28;20040;-59
2022/04/09 02:02:48;;;;;;;0.20;0.20;;;;;;;6.18;95.17;99072.25;4998186;28;20249;-57
2022/04/09 02:05:14;;;;;;;0.10;0.10;;;;;;;6.06;95.87;99075.16;5000936;28;20044;-60
2022/04/09 02:07:42;;;;;;;0.10;0.10;;;;;;;6.06;94.99;99075.94;4993985;28;20397;-57
2022/04/09 02:10:09;;;;;;;0.10;0.10;;;;;;;6.09;94.14;99087.81;4984754;28;20034;-60
2022/04/09 02:12:38;;;;;;;0.43;0.43;;;;;;;6.12;93.92;99087.84;4992784;28;20034;-59
2022/04/09 02:15:07;;;;;;;0.15;0.15;;;;;;;6.16;93.91;99093.22;4982538;28;20032;-59
2022/04/09 02:17:35;;;;;;;0.15;0.15;;;;;;;5.88;95.03;99098.22;4978622;28;20050;-59
2022/04/09 02:20:03;;;;;;;0.10;0.10;;;;;;;6.12;93.17;99097.75;4976984;28;20024;-60
2022/04/09 02:22:36;;;;;;;0.20;0.20;;;;;;;5.75;95.58;99096.88;4989079;28;20108;-59
2022/04/09 02:25:06;;;;;;;0.20;0.20;;;;;;;5.64;96.47;99091.38;4994268;28;20030;-59
2022/04/09 02:27:34;;;;;;;0.10;0.10;;;;;;;5.65;96.55;99094.84;4975254;28;20117;-55
2022/04/09 02:30:00;;;;;;;0.20;0.20;;;;;;;5.60;96.78;99109.25;4999994;28;20520;-59
2022/04/09 02:32:27;;;;;;;0.20;0.20;;;;;;;5.89;95.51;99107.78;5001036;28;20419;-60
2022/04/09 02:34:53;;;;;;;0.10;0.10;;;;;;;5.69;96.14;99117.00;4988382;28;20029;-58
2022/04/09 02:37:22;;;;;;;0.20;0.20;;;;;;;5.85;94.60;99122.97;5001532;28;20034;-60
2022/04/09 02:39:48;;;;;;;0.10;0.10;;;;;;;5.58;95.76;99116.06;5009878;28;20029;-60
2022/04/09 02:42:14;;;;;;;0.20;0.20;;;;;;;5.75;95.67;99129.69;4985019;28;20408;-60
2022/04/09 02:44:41;;;;;;;0.17;0.17;;;;;;;6.02;93.46;99135.81;5012281;28;20403;-60
2022/04/09 02:47:07;;;;;;;0.20;0.20;;;;;;;5.60;95.62;99129.81;5012158;28;20061;-55
2022/04/09 02:49:33;;;;;;;0.10;0.10;;;;;;;5.40;96.37;99124.59;4992649;28;20038;-59
2022/04/09 02:51:59;;;;;;;0.20;0.20;;;;;;;5.55;96.73;99132.81;4992424;28;20096;-58
2022/04/09 02:54:24;;;;;;;0.10;0.10;;;;;;;5.40;96.97;99142.50;5007800;28;20032;-58
2022/04/09 02:56:51;;;;;;;0.10;0.10;;;;;;;5.66;95.14;99136.41;5006995;28;20095;-59
2022/04/09 02:59:20;;;;;;;0.10;0.10;;;;;;;5.59;94.69;99147.00;5006836;28;20033;-58
2022/04/09 03:01:46;;;;;;;0.10;0.10;;;;;;;5.36;95.80;99153.09;5002039;28;20396;-59
2022/04/09 03:04:14;;;;;;;0.15;0.15;;;;;;;5.34;96.14;99146.59;4994184;28;20446;-58
2022/04/09 03:06:39;;;;;;;0.10;0.10;;;;;;;5.41;95.89;99152.03;5017145;28;20041;-58
2022/04/09 03:09:05;;;;;;;0.05;0.05;;;;;;;5.42;96.80;99158.91;5000056;28;20029;-58
2022/04/09 03:11:31;;;;;;;0.10;0.10;;;;;;;5.42;96.54;99164.25;4995685;28;20038;-57
2022/04/09 03:13:57;;;;;;;0.20;0.20;;;;;;;5.53;96.01;99171.31;5009023;28;20040;-59
2022/04/09 03:16:22;;;;;;;0.20;0.20;;;;;;;5.42;96.54;99174.94;4993470;28;20049;-60
2022/04/09 03:18:51;;;;;;;0.10;0.10;;;;;;;5.42;95.84;99173.03;4998549;28;20034;-60
2022/04/09 03:21:18;;;;;;;0.10;0.10;;;;;;;5.49;94.88;99178.50;4994551;28;20041;-58
2022/04/09 03:23:43;;;;;;;0.10;0.10;;;;;;;5.27;96.62;99176.59;5010423;28;20026;-58
2022/04/09 03:26:11;;;;;;;0.10;0.10;;;;;;;5.37;95.91;99184.03;5011129;28;20117;-59
2022/04/09 03:28:39;;;;;;;0.10;0.10;;;;;;;5.34;96.08;99183.97;4977908;28;20030;-59
2022/04/09 03:31:08;;;;;;;0.10;0.10;;;;;;;5.37;95.35;99184.03;5030064;28;20036;-60
2022/04/09 03:33:34;;;;;;;0.10;0.10;;;;;;;5.23;96.62;99183.78;5001163;28;20035;-58
2022/04/09 03:36:04;;;;;;;0.20;0.20;;;;;;;5.18;96.50;99189.41;4995537;28;20049;-57
2022/04/09 03:38:31;;;;;;;0.30;0.30;;;;;;;5.13;97.62;99199.59;5007833;28;20026;-56
2022/04/09 03:40:57;;;;;;;0.20;0.20;;;;;;;5.43;95.16;99198.63;5011679;28;20463;-58
2022/04/09 03:43:46;;;;;;;0.10;0.10;;;;;;;5.38;94.81;99208.81;5001460;28;21206;-59
2022/04/09 03:46:11;;;;;;;0.65;0.65;;;;;;;5.23;95.63;99212.34;4996253;28;20094;-57
2022/04/09 03:48:37;;;;;;;0.10;0.10;;;;;;;5.32;94.94;99208.31;5000379;28;20026;-59
2022/04/09 03:51:02;;;;;;;0.10;0.10;;;;;;;5.18;95.30;99207.31;4972667;28;20105;-56
2022/04/09 03:53:28;;;;;;;0.10;0.10;;;;;;;5.30;94.50;99217.81;4996176;28;20040;-58
2022/04/09 03:55:58;;;;;;;0.10;0.10;;;;;;;5.12;95.17;99219.38;5010431;28;20124;-57
2022/04/09 03:58:24;;;;;;;0.10;0.10;;;;;;;5.05;96.13;99217.34;5002722;28;20555;-59
2022/04/09 04:00:53;;;;;;;0.10;0.10;;;;;;;5.15;96.23;99211.44;4990936;28;20473;-59
2022/04/09 04:03:20;;;;;;;0.20;0.20;;;;;;;5.15;95.71;99216.03;4995229;28;20455;-59
2022/04/09 04:05:48;;;;;;;0.10;0.10;;;;;;;5.19;95.08;99222.19;4992751;28;20034;-57
2022/04/09 04:08:14;;;;;;;0.10;0.10;;;;;;;5.02;95.78;99215.41;4991817;28;20116;-57
2022/04/09 04:10:41;;;;;;;0.10;0.10;;;;;;;5.07;96.13;99228.44;4993143;28;20473;-59
2022/04/09 04:13:27;;;;;;;0.10;0.10;;;;;;;5.22;95.01;99232.16;5010239;28;20141;-58
2022/04/09 04:15:55;;;;;;;0.10;0.10;;;;;;;5.10;95.50;99233.09;5009379;28;20050;-57
2022/04/09 04:18:21;;;;;;;0.10;0.10;;;;;;;5.02;96.21;99231.41;4984916;28;20034;-56
2022/04/09 04:20:50;;;;;;;0.20;0.20;;;;;;;5.00;96.50;99236.31;4991811;28;20356;-56
2022/04/09 04:23:16;;;;;;;0.10;0.10;;;;;;;4.99;97.15;99247.34;4995529;28;20039;-55
2022/04/09 04:25:42;;;;;;;0.10;0.10;;;;;;;4.95;97.17;99243.84;5002246;28;20116;-58
2022/04/09 04:28:08;;;;;;;0.13;0.13;;;;;;;5.01;97.11;99251.22;4992495;28;20501;-57
2022/04/09 04:30:34;;;;;;;0.20;0.20;;;;;;;5.05;96.93;99257.38;4991063;28;20018;-59
2022/04/09 04:33:00;;;;;;;0.10;0.10;;;;;;;5.16;96.66;99268.25;4989299;28;20045;-56
2022/04/09 04:35:35;;;;;;;0.15;0.15;;;;;;;5.33;94.57;99262.47;4992109;28;20029;-59
2022/04/09 04:38:00;;;;;;;0.10;0.10;;;;;;;5.15;96.71;99272.06;4997585;28;20038;-58
2022/04/09 04:40:29;;;;;;;0.20;0.20;;;;;;;5.08;97.17;99277.25;4987742;28;20112;-58
2022/04/09 04:42:59;;;;;;;0.28;0.28;;;;;;;5.11;97.15;99277.31;4989919;28;20140;-60
2022/04/09 04:45:27;;;;;;;0.20;0.20;;;;;;;5.08;96.93;99286.03;4989756;28;20030;-59
2022/04/09 04:47:54;;;;;;;0.10;0.10;;;;;;;4.99;97.98;99279.34;4991102;28;20088;-59
2022/04/09 04:50:24;;;;;;;0.10;0.10;;;;;;;5.08;97.97;99290.56;4993373;28;20492;-59
2022/04/09 04:52:51;;;;;;;0.10;0.10;;;;;;;5.07;97.31;99291.72;5012492;28;20042;-59
2022/04/09 04:55:19;;;;;;;0.35;0.35;;;;;;;5.44;95.04;99298.91;4997211;28;20058;-60
2022/04/09 04:57:52;;;;;;;0.10;0.10;;;;;;;5.09;96.88;99305.47;4988359;28;20022;-59
2022/04/09 05:00:44;;;;;;;0.10;0.10;;;;;;;5.12;97.37;99310.09;4994785;28;20034;-60
2022/04/09 05:03:15;;;;;;;0.10;0.10;;;;;;;5.12;97.16;99307.44;4989420;28;20045;-60
2022/04/09 05:06:12;;;;;;;0.10;0.10;;;;;;;5.20;96.25;99317.13;4989083;28;20065;-60
2022/04/09 05:08:40;;;;;;;0.15;0.15;;;;;;;5.09;96.64;99311.56;4995772;28;20496;-58
2022/04/09 05:11:08;;;;;;;0.20;0.20;;;;;;;5.09;97.27;99316.91;4974434;28;20417;-59
2022/04/09 05:13:36;;;;;;;0.10;0.10;;;;;;;5.14;97.03;99313.19;5007630;28;20033;-59
2022/04/09 05:16:02;;;;;;;0.10;0.10;;;;;;;5.18;96.67;99322.81;4994004;28;20038;-58
2022/04/09 05:18:32;;;;;;;0.10;0.10;;;;;;;5.37;95.89;99320.13;5010435;28;20496;-59
2022/04/09 05:20:58;;;;;;;0.10;0.10;;;;;;;5.28;96.17;99321.47;4999595;28;20412;-59
2022/04/09 05:23:26;;;;;;;0.20;0.20;;;;;;;5.42;95.73;99330.50;5004250;28;20320;-59
2022/04/09 05:25:51;;;;;;;0.10;0.10;;;;;;;5.33;95.80;99332.63;4991969;28;20046;-60
2022/04/09 05:28:18;;;;;;;0.20;0.20;;;;;;;5.34;96.52;99336.84;5001886;28;20048;-59
2022/04/09 05:30:50;;;;;;;0.20;0.20;;;;;;;5.37;96.74;99341.47;4991743;28;20026;-59
2022/04/09 05:33:19;;;;;;;0.10;0.10;;;;;;;5.44;96.00;99340.81;5007412;28;20088;-58
2022/04/09 05:35:51;;;;;;;0.15;0.15;;;;;;;5.63;96.06;99345.38;4984492;28;20026;-58
2022/04/09 05:38:18;;;;;;;0.10;0.10;;;;;;;5.49;95.42;99353.91;4987217;28;20706;-57
2022/04/09 05:40:46;;;;;;;0.10;0.10;;;;;;;5.46;95.97;99358.03;4983599;28;20029;-59
2022/04/09 05:43:16;;;;;;;0.20;0.20;;;;;;;5.52;96.34;99350.53;4989301;28;20033;-56
2022/04/09 05:45:45;;;;;;;0.20;0.20;;;;;;;5.63;95.48;99356.06;5007649;28;20033;-57
2022/04/09 05:48:13;;;;;;;0.10;0.10;;;;;;;5.65;95.47;99351.94;4992006;28;20068;-56
2022/04/09 05:50:44;;;;;;;0.10;0.10;;;;;;;5.70;95.20;99369.53;4992321;28;20026;-56
2022/04/09 05:53:10;;;;;;;0.20;0.20;;;;;;;5.71;94.65;99368.44;4991421;28;20060;-57
2022/04/09 05:55:36;;;;;;;0.10;0.10;;;;;;;5.78;94.40;99363.22;5008659;28;20472;-59
2022/04/09 05:58:02;;;;;;;0.43;0.40;;;;;;;5.82;93.34;99369.38;4986870;28;20489;-59
2022/04/09 06:00:29;;;;;;;0.10;0.10;;;;;;;5.66;94.56;99364.13;4991560;28;20045;-59
2022/04/09 06:03:04;;;;;;;0.20;0.20;;;;;;;5.69;95.16;99376.03;4989055;28;20133;-59
2022/04/09 06:05:34;;;;;;;0.10;0.10;;;;;;;5.79;95.15;99388.81;4987436;28;20030;-58
2022/04/09 06:08:03;;;;;;;0.32;0.32;;;;;;;5.77;94.61;99391.06;4989616;28;20042;-55
2022/04/09 06:10:29;;;;;;;0.10;0.10;;;;;;;5.81;95.75;99391.88;4983528;28;20032;-57
2022/04/09 06:12:55;;;;;;;0.10;0.10;;;;;;;6.00;94.94;99397.22;4990067;28;20117;-56
2022/04/09 06:15:25;;;;;;;0.10;0.10;;;;;;;6.16;94.49;99400.53;4992001;28;20427;-58
2022/04/09 06:17:56;;;;;;;0.10;0.10;;;;;;;6.31;94.92;99399.66;5001830;28;20065;-59
2022/04/09 06:20:22;;;;;;;0.10;0.10;;;;;;;6.41;93.02;99409.00;4991059;28;20053;-60
2022/04/09 06:22:48;;;;;;;0.13;0.13;;;;;;;6.45;92.43;99407.13;4990075;28;20413;-59
2022/04/09 06:25:17;;;;;;;0.30;0.30;;;;;;;6.34;92.19;99412.31;4997207;28;20121;-58
2022/04/09 06:27:43;;;;;;;0.10;0.10;;;;;;;6.34;92.60;99412.31;4993462;28;20195;-57
2022/04/09 06:30:12;;;;;;;0.20;0.20;;;;;;;6.30;92.42;99406.13;4995118;28;20110;-58
2022/04/09 06:32:42;;;;;;;0.10;0.10;;;;;;;6.42;91.76;99422.00;4978125;28;20536;-57
2022/04/09 06:35:09;;;;;;;0.10;0.10;;;;;;;6.37;91.68;99427.63;4972893;28;20544;-56
2022/04/09 06:37:38;;;;;;;0.10;0.10;;;;;;;6.45;92.33;99423.94;4982005;28;20026;-61
2022/04/09 06:40:09;;;;;;;0.20;0.20;;;;;;;6.46;91.78;99430.84;4988551;28;20038;-61
2022/04/09 06:42:36;;;;;;;0.20;0.20;;;;;;;6.46;91.55;99449.56;4988884;28;20030;-58
2022/04/09 06:45:16;;;;;;;0.10;0.10;;;;;;;6.52;91.98;99437.47;4988242;28;20081;-58
2022/04/09 06:48:01;;;;;;;0.10;0.10;;;;;;;6.60;91.88;99433.75;5004631;28;20088;-52
2022/04/09 06:50:28;;;;;;;0.10;0.10;;;;;;;6.76;91.69;99449.66;4995185;28;20041;-59
2022/04/09 06:52:57;;;;;;;0.10;0.10;;;;;;;6.94;90.83;99440.78;4995405;28;20030;-58
2022/04/09 06:55:28;;;;;;;0.20;0.20;;;;;;;6.75;91.91;99442.78;4983411;28;20113;-59
2022/04/09 06:58:02;;;;;;;0.10;0.10;;;;;;;7.23;91.59;99458.03;5014080;23;20137;-67
2022/04/09 07:00:33;;;;;;;0.10;0.10;;;;;;;7.60;90.12;99456.22;4989672;28;20432;-64
2022/04/09 07:03:03;;;;;;;0.40;0.40;;;;;;;7.73;88.64;99467.47;4990355;28;20037;-62
2022/04/09 07:05:28;;;;;;;0.10;0.10;;;;;;;7.95;88.32;99469.28;4994944;28;20018;-67
2022/04/09 07:07:54;;;;;;;0.20;0.20;;;;;;;8.05;88.16;99465.94;5006481;28;20044;-65
2022/04/09 07:10:19;;;;;;;0.10;0.10;;;;;;;8.18;86.36;99472.59;5008376;28;20067;-63
2022/04/09 07:12:45;;;;;;;0.10;0.10;;;;;;;8.00;87.05;99482.34;4993097;28;20132;-64
2022/04/09 07:15:11;;;;;;;0.10;0.10;;;;;;;7.72;88.93;99482.78;5004385;28;20231;-66
2022/04/09 07:17:38;;;;;;;0.17;0.17;;;;;;;7.78;88.82;99494.69;5010220;28;20480;-65
2022/04/09 07:20:05;;;;;;;0.10;0.10;;;;;;;7.74;89.69;99496.56;5006904;28;20461;-65
2022/04/09 07:22:33;;;;;;;0.00;0.00;;;;;;;7.61;89.76;99499.84;5010496;28;20022;-63
2022/04/09 07:24:58;;;;;;;0.10;0.10;;;;;;;7.55;90.36;99499.38;5008280;28;20029;-66
2022/04/09 07:27:38;;;;;;;0.35;0.22;;;;;;;7.50;91.77;99498.94;5011264;28;20542;-65
2022/04/09 07:30:09;;;;;;;0.10;0.10;;;;;;;7.92;91.81;99505.59;5010584;28;20105;-64
2022/04/09 07:32:34;;;;;;;0.15;0.15;;;;;;;8.04;89.55;99507.28;5010127;28;20053;-63
2022/04/09 07:35:00;;;;;;;0.10;0.10;;;;;;;7.67;90.32;99514.47;5011316;28;20030;-63
2022/04/09 07:37:25;;;;;;;0.10;0.10;;;;;;;7.75;91.41;99516.88;5010926;28;20030;-64
2022/04/09 07:39:52;;;;;;;0.10;0.10;;;;;;;7.41;93.65;99525.22;5009567;28;20042;-64
2022/04/09 07:42:18;;;;;;;0.10;0.10;;;;;;;7.27;93.73;99517.75;5011955;28;20061;-64
2022/04/09 07:44:43;;;;;;;0.10;0.10;;;;;;;6.99;95.92;99520.75;5010733;28;20459;-65
2022/04/09 07:47:09;;;;;;;0.30;0.30;;;;;;;7.08;97.28;99531.97;5012234;28;20030;-63
2022/04/09 07:49:34;;;;;;;0.30;0.30;;;;;;;7.37;96.70;99537.78;5012389;28;20029;-64
2022/04/09 07:51:59;;;;;;;0.10;0.10;;;;;;;7.22;96.70;99520.72;5012927;28;20500;-64
2022/04/09 07:54:26;;;;;;;0.10;0.10;;;;;;;6.88;97.62;99519.81;5009500;28;20030;-65
2022/04/09 07:56:52;;;;;;;0.10;0.10;;;;;;;6.60;98.77;99545.31;5010748;28;20033;-64
2022/04/09 07:59:17;;;;;;;0.10;0.10;;;;;;;6.45;100.00;99541.59;5011393;28;20056;-65
2022/04/09 08:01:43;;;;;;;0.10;0.10;;;;;;;6.84;100.00;99553.75;5009229;28;20110;-65
2022/04/09 08:04:08;;;;;;;0.10;0.10;;;;;;;7.22;100.00;99553.63;5009576;28;20079;-65
2022/04/09 08:06:33;;;;;;;0.10;0.10;;;;;;;7.55;100.00;99554.88;5009121;28;20231;-63
2022/04/09 08:08:59;;;;;;;0.10;0.10;;;;;;;7.75;100.00;99550.94;5011334;28;20401;-64
2022/04/09 08:11:26;;;;;;;0.10;0.10;;;;;;;7.86;100.00;99544.56;5008529;28;20029;-64
2022/04/09 08:13:51;;;;;;;0.10;0.10;;;;;;;8.23;98.74;99564.19;5011227;28;20042;-64
2022/04/09 08:16:17;;;;;;;0.00;0.00;;;;;;;8.15;96.38;99556.41;5011452;28;20042;-65
2022/04/09 08:18:42;;;;;;;0.20;0.20;;;;;;;8.27;95.97;99564.25;5011563;28;20361;-63
2022/04/09 08:21:08;;;;;;;0.20;0.20;;;;;;;8.06;95.99;99558.63;5010846;28;20129;-66
2022/04/09 08:23:33;;;;;;;0.10;0.10;;;;;;;8.13;96.39;99558.69;5011229;28;20037;-65
2022/04/09 08:26:00;;;;;;;0.00;0.00;;;;;;;8.05;96.58;99570.50;5009283;28;20034;-66
2022/04/09 08:28:27;;;;;;;0.10;0.10;;;;;;;8.22;96.52;99561.88;5002801;28;20488;-66
2022/04/09 08:30:53;;;;;;;0.00;0.00;;;;;;;8.19;95.11;99551.88;5011352;28;20045;-64
2022/04/09 08:33:19;;;;;;;0.10;0.10;;;;;;;8.55;95.15;99559.22;5011018;28;20041;-65
2022/04/09 08:35:44;;;;;;;0.00;0.00;;;;;;;8.61;96.00;99563.13;5010612;28;20045;-66
2022/04/09 08:38:10;;;;;;;0.10;0.10;;;;;;;8.94;94.25;99556.91;5008380;28;20037;-65
2022/04/09 08:40:40;;;;;;;0.10;0.10;;;;;;;8.98;91.78;99555.78;5009447;28;20072;-64
2022/04/09 08:43:05;;;;;;;0.10;0.10;;;;;;;8.78;92.23;99564.41;5010640;28;20436;-64
2022/04/09 08:45:36;;;;;;;0.10;0.10;;;;;;;8.69;91.21;99569.31;5010236;28;20243;-65
2022/04/09 08:48:05;;;;;;;0.20;0.20;;;;;;;8.38;90.92;99564.38;5010624;28;20038;-64
2022/04/09 08:50:31;;;;;;;0.10;0.10;;;;;;;8.39;91.29;99569.38;5011408;28;20073;-64
2022/04/09 08:52:59;;;;;;;0.10;0.10;;;;;;;8.45;91.78;99577.88;5006203;28;20164;-64
2022/04/09 08:55:25;;;;;;;0.10;0.10;;;;;;;8.39;90.25;99572.06;5008604;28;20022;-64
2022/04/09 08:57:50;;;;;;;0.10;0.10;;;;;;;8.65;89.34;99581.94;5010387;28;20450;-66
2022/04/09 09:00:17;;;;;;;0.10;0.10;;;;;;;8.72;88.77;99579.31;5009257;28;20514;-66
2022/04/09 09:02:50;;;;;;;0.10;0.10;;;;;;;8.96;88.75;99584.91;5010223;28;20056;-66
2022/04/09 09:05:39;;;;;;;0.25;0.25;;;;;;;9.01;88.24;99589.19;5010613;28;20131;-66
2022/04/09 09:08:09;;;;;;;0.10;0.10;;;;;;;9.02;87.46;99583.44;5009800;28;20045;-66
2022/04/09 09:10:35;;;;;;;0.10;0.10;;;;;;;9.05;87.35;99588.06;5009019;28;20033;-65
2022/04/09 09:13:06;;;;;;;0.10;0.10;;;;;;;9.33;86.61;99581.41;5010657;28;20172;-66
2022/04/09 09:15:52;;;;;;;0.17;0.17;;;;;;;9.55;85.47;99599.97;5009716;28;20041;-65
2022/04/09 09:18:28;;;;;;;0.10;0.10;;;;;;;9.85;84.63;99599.78;5010079;28;20050;-66
2022/04/09 09:20:56;;;;;;;0.10;0.10;;;;;;;9.94;83.73;99610.97;5007873;28;20042;-65
2022/04/09 09:23:29;;;;;;;0.20;0.20;;;;;;;9.90;82.83;99596.75;5009003;28;20428;-65
2022/04/09 09:25:56;;;;;;;0.10;0.10;;;;;;;10.10;80.91;99591.88;4992390;28;20184;-65
2022/04/09 09:28:26;;;;;;;0.10;0.10;;;;;;;10.32;80.95;99596.97;5009930;28;20424;-66
2022/04/09 09:30:53;;;;;;;0.10;0.10;;;;;;;10.64;79.98;99599.78;5009178;28;20041;-66
2022/04/09 09:33:18;;;;;;;0.10;0.10;;;;;;;10.49;79.26;99598.19;5010241;28;20161;-66
2022/04/09 09:35:59;;;;;;;0.10;0.10;;;;;;;10.13;79.11;99605.34;5007794;28;20221;-65
2022/04/09 09:38:33;;;;;;;0.10;0.10;;;;;;;9.97;79.97;99599.47;5001627;28;20048;-66
2022/04/09 09:41:01;;;;;;;0.40;0.40;;;;;;;9.76;82.55;99612.78;5007267;28;20125;-65
2022/04/09 09:43:27;;;;;;;0.10;0.10;;;;;;;9.53;84.99;99612.22;5016596;28;20044;-66
2022/04/09 09:45:53;;;;;;;0.10;0.10;;;;;;;9.61;84.58;99605.78;5007383;28;20034;-66
2022/04/09 09:48:29;;;;;;;0.10;0.10;;;;;;;10.07;84.05;99598.75;5009824;28;20038;-65
2022/04/09 09:50:56;;;;;;;0.10;0.10;;;;;;;10.35;83.32;99622.34;5010051;28;20033;-65
2022/04/09 09:53:36;;;;;;;0.85;0.20;;;;;;;10.77;79.99;99622.50;5008991;28;20040;-64
2022/04/09 09:56:03;;;;;;;0.40;0.40;;;;;;;10.80;78.62;99614.41;5006499;28;20033;-62
2022/04/09 09:58:30;;;;;;;0.10;0.10;;;;;;;10.99;75.95;99620.63;5008874;28;20048;-64
2022/04/09 10:00:57;;;;;;;0.10;0.10;;;;;;;11.27;73.86;99621.41;5004770;28;20045;-64
2022/04/09 10:03:24;;;;;;;0.00;0.00;;;;;;;11.31;72.97;99621.41;4993029;28;20046;-64
2022/04/09 10:05:50;;;;;;;0.00;0.00;;;;;;;11.46;73.38;99622.94;4997868;28;20033;-65
2022/04/09 10:08:17;;;;;;;0.10;0.10;;;;;;;11.73;72.66;99616.81;5002199;28;20481;-64
2022/04/09 10:10:48;;;;;;;0.10;0.10;;;;;;;11.74;71.21;99615.66;5003743;28;20108;-65
2022/04/09 10:13:18;;;;;;;0.10;0.10;;;;;;;11.71;70.30;99629.16;5002578;28;20157;-65
2022/04/09 10:15:46;;;;;;;0.00;0.00;;;;;;;11.69;69.04;99626.06;5000753;28;20101;-66
2022/04/09 10:18:13;;;;;;;0.10;0.10;;;;;;;11.93;68.63;99619.06;5001167;28;20396;-67
2022/04/09 10:20:39;;;;;;;0.08;0.08;;;;;;;11.90;67.56;99647.63;5005516;28;20083;-65
2022/04/09 10:23:09;;;;;;;0.10;0.10;;;;;;;11.65;67.11;99639.53;4989402;28;20100;-64
2022/04/09 10:25:40;;;;;;;0.17;0.10;;;;;;;11.30;68.75;99641.44;4973986;28;20424;-64
2022/04/09 10:28:07;;;;;;;0.10;0.10;;;;;;;11.41;67.96;99653.78;5002986;28;20065;-65
2022/04/09 10:30:40;;;;;;;0.10;0.10;;;;;;;11.25;65.22;99647.97;5001396;28;20029;-65
2022/04/09 10:33:22;;;;;;;0.10;0.10;;;;;;;11.25;64.49;99676.84;5015359;28;20038;-64
2022/04/09 10:35:48;;;;;;;0.10;0.10;;;;;;;11.10;61.45;99667.97;5006247;28;20049;-64
2022/04/09 10:38:22;;;;;;;0.20;0.20;;;;;;;11.23;63.62;99665.69;5003895;28;20509;-65
2022/04/09 10:40:52;;;;;;;0.10;0.10;;;;;;;11.37;62.84;99652.22;5005281;28;20038;-64
2022/04/09 10:43:24;;;;;;;0.20;0.20;;;;;;;11.48;62.28;99677.25;5000486;28;20033;-64
2022/04/09 10:46:10;;;;;;;0.10;0.10;;;;;;;11.72;60.13;99660.34;5004798;28;20053;-63
2022/04/09 10:48:36;;;;;;;0.10;0.10;;;;;;;11.73;61.13;99675.38;5020433;28;20508;-65
2022/04/09 10:51:51;;;;;;;0.10;0.10;;;;;;;12.18;60.48;99671.06;5012232;28;20124;-64
2022/04/09 10:54:20;;;;;;;0.00;0.00;;;;;;;12.35;60.95;99681.06;4995832;28;20056;-64
2022/04/09 10:56:48;;;;;;;0.10;0.10;;;;;;;11.86;62.37;99664.97;5002089;28;20045;-63
2022/04/09 10:59:13;;;;;;;0.10;0.10;;;;;;;11.51;67.88;99671.13;5010664;28;20026;-64
2022/04/09 11:01:48;;;;;;;0.10;0.10;;;;;;;11.13;70.58;99683.38;5006018;28;20811;-64
2022/04/09 11:04:29;;;;;;;0.10;0.10;;;;;;;10.80;73.24;99702.53;5002999;28;20036;-64
2022/04/09 11:07:01;;;;;;;0.10;0.10;;;;;;;10.37;77.92;99747.31;5001877;28;20042;-63
2022/04/09 11:09:40;;;;;;;0.10;0.10;;;;;;;9.65;78.02;99727.53;5010080;28;20030;-63
2022/04/09 11:12:06;;;;;;;0.10;0.10;;;;;;;9.15;81.53;99712.06;5010017;28;20049;-63
2022/04/09 11:14:42;;;;;;;0.10;0.10;;;;;;;9.02;83.11;99719.59;5002923;28;20026;-64
2022/04/09 11:17:34;;;;;;;0.10;0.10;;;;;;;9.19;86.99;99715.56;5004482;28;20033;-63
2022/04/09 11:20:24;;;;;;;0.10;0.10;;;;;;;9.72;88.96;99719.50;5000378;28;20046;-64
2022/04/09 11:22:54;;;;;;;0.10;0.10;;;;;;;10.28;90.00;99709.19;5001968;28;20045;-64
2022/04/09 11:25:24;;;;;;;0.10;0.10;;;;;;;10.53;88.17;99717.41;5002934;28;20186;-65
2022/04/09 11:28:04;;;;;;;0.10;0.10;;;;;;;10.92;87.51;99723.72;5007723;28;20113;-64
2022/04/09 11:30:29;;;;;;;0.10;0.10;;;;;;;11.33;85.56;99725.00;4997807;28;20816;-65
2022/04/09 11:32:55;;;;;;;0.57;0.57;;;;;;;11.63;83.28;99719.28;5000358;28;20120;-65
2022/04/09 11:35:24;;;;;;;0.10;0.10;;;;;;;11.76;79.07;99723.16;5008565;28;20041;-66
2022/04/09 11:37:51;;;;;;;0.10;0.10;;;;;;;11.94;78.76;99712.38;5000603;28;20057;-64
2022/04/09 11:40:19;;;;;;;0.10;0.10;;;;;;;12.10;77.26;99716.19;4988938;28;20041;-67
2022/04/09 11:42:47;;;;;;;0.10;0.10;;;;;;;12.12;75.73;99718.50;4988514;28;20424;-63
2022/04/09 11:45:19;;;;;;;0.10;0.10;;;;;;;11.92;73.01;99718.16;4994273;28;20037;-66
2022/04/09 11:47:45;;;;;;;0.10;0.10;;;;;;;12.20;72.44;99711.94;4991496;28;20435;-67